sensor_id;sensor_type;location;lat;lon;timestamp;P1;durP1;ratioP1;P2;durP2;ratioP2
3733;SDS011;1882;52.256;8.874;2022-12-26T00:02:04;17.00;;;10.70;;
3733;SDS011;1882;52.256;8.874;2022-12-26T00:04:31;13.67;;;10.17;;
3733;SDS011;1882;52.256;8.874;2022-12-26T00:07:17;14.63;;;10.67;;
3733;SDS011;1882;52.256;8.874;2022-12-26T00:09:44;13.17;;;10.30;;
3733;SDS011;1882;52.256;8.874;2022-12-26T00:12:11;15.10;;;11.10;;
3733;SDS011;1882;52.256;8.874;2022-12-26T00:14:37;14.70;;;10.20;;
3733;SDS011;1882;52.256;8.874;2022-12-26T00:17:04;14.90;;;10.00;;
3733;SDS011;1882;52.256;8.874;2022-12-26T00:19:31;14.20;;;10.13;;
3733;SDS011;1882;52.256;8.874;2022-12-26T00:21:57;14.73;;;10.33;;
3733;SDS011;1882;52.256;8.874;2022-12-26T00:24:24;14.43;;;10.40;;
3733;SDS011;1882;52.256;8.874;2022-12-26T00:26:51;15.57;;;11.33;;
3733;SDS011;1882;52.256;8.874;2022-12-26T00:29:17;15.10;;;10.80;;
3733;SDS011;1882;52.256;8.874;2022-12-26T00:31:44;18.40;;;11.00;;
3733;SDS011;1882;52.256;8.874;2022-12-26T00:34:12;14.60;;;10.83;;
3733;SDS011;1882;52.256;8.874;2022-12-26T00:36:39;15.27;;;11.47;;
3733;SDS011;1882;52.256;8.874;2022-12-26T00:39:06;17.27;;;11.20;;
3733;SDS011;1882;52.256;8.874;2022-12-26T00:41:33;14.73;;;10.80;;
3733;SDS011;1882;52.256;8.874;2022-12-26T00:44:00;16.20;;;11.83;;
3733;SDS011;1882;52.256;8.874;2022-12-26T00:46:27;16.33;;;11.67;;
3733;SDS011;1882;52.256;8.874;2022-12-26T00:48:54;14.97;;;11.13;;
3733;SDS011;1882;52.256;8.874;2022-12-26T00:51:20;15.60;;;11.33;;
3733;SDS011;1882;52.256;8.874;2022-12-26T00:53:47;17.27;;;11.57;;
3733;SDS011;1882;52.256;8.874;2022-12-26T00:56:14;18.20;;;10.70;;
3733;SDS011;1882;52.256;8.874;2022-12-26T00:58:41;15.93;;;11.00;;
3733;SDS011;1882;52.256;8.874;2022-12-26T01:01:08;19.97;;;11.20;;
3733;SDS011;1882;52.256;8.874;2022-12-26T01:03:40;18.83;;;11.07;;
3733;SDS011;1882;52.256;8.874;2022-12-26T01:06:07;15.13;;;10.83;;
3733;SDS011;1882;52.256;8.874;2022-12-26T01:08:36;15.60;;;10.60;;
3733;SDS011;1882;52.256;8.874;2022-12-26T01:11:06;17.30;;;10.40;;
3733;SDS011;1882;52.256;8.874;2022-12-26T01:13:35;17.83;;;10.77;;
3733;SDS011;1882;52.256;8.874;2022-12-26T01:16:02;20.87;;;9.80;;
3733;SDS011;1882;52.256;8.874;2022-12-26T01:18:29;15.07;;;9.73;;
3733;SDS011;1882;52.256;8.874;2022-12-26T01:20:57;19.20;;;10.87;;
3733;SDS011;1882;52.256;8.874;2022-12-26T01:23:25;20.53;;;10.50;;
3733;SDS011;1882;52.256;8.874;2022-12-26T01:25:52;17.37;;;10.60;;
3733;SDS011;1882;52.256;8.874;2022-12-26T01:28:39;16.70;;;9.70;;
3733;SDS011;1882;52.256;8.874;2022-12-26T01:31:05;17.53;;;10.50;;
3733;SDS011;1882;52.256;8.874;2022-12-26T01:33:32;16.97;;;11.27;;
3733;SDS011;1882;52.256;8.874;2022-12-26T01:35:58;17.87;;;10.87;;
3733;SDS011;1882;52.256;8.874;2022-12-26T01:38:25;19.57;;;11.70;;
3733;SDS011;1882;52.256;8.874;2022-12-26T01:40:52;16.43;;;10.50;;
3733;SDS011;1882;52.256;8.874;2022-12-26T01:46:19;16.23;;;9.97;;
3733;SDS011;1882;52.256;8.874;2022-12-26T01:49:18;18.30;;;9.97;;
3733;SDS011;1882;52.256;8.874;2022-12-26T01:52:04;16.97;;;10.40;;
3733;SDS011;1882;52.256;8.874;2022-12-26T01:54:34;18.00;;;10.30;;
3733;SDS011;1882;52.256;8.874;2022-12-26T01:57:09;17.50;;;10.80;;
3733;SDS011;1882;52.256;8.874;2022-12-26T01:59:46;18.50;;;9.83;;
3733;SDS011;1882;52.256;8.874;2022-12-26T02:02:15;20.20;;;10.50;;
3733;SDS011;1882;52.256;8.874;2022-12-26T02:04:43;20.00;;;10.10;;
3733;SDS011;1882;52.256;8.874;2022-12-26T02:07:31;16.13;;;10.03;;
3733;SDS011;1882;52.256;8.874;2022-12-26T02:09:59;19.27;;;11.00;;
3733;SDS011;1882;52.256;8.874;2022-12-26T02:12:30;18.57;;;11.33;;
3733;SDS011;1882;52.256;8.874;2022-12-26T02:15:06;15.97;;;9.70;;
3733;SDS011;1882;52.256;8.874;2022-12-26T02:17:34;16.20;;;10.63;;
3733;SDS011;1882;52.256;8.874;2022-12-26T02:22:47;17.93;;;10.27;;
3733;SDS011;1882;52.256;8.874;2022-12-26T02:25:31;15.40;;;10.23;;
3733;SDS011;1882;52.256;8.874;2022-12-26T02:28:07;19.30;;;10.63;;
3733;SDS011;1882;52.256;8.874;2022-12-26T02:45:17;20.57;;;10.83;;
3733;SDS011;1882;52.256;8.874;2022-12-26T02:48:11;20.80;;;11.33;;
3733;SDS011;1882;52.256;8.874;2022-12-26T02:56:45;19.23;;;10.93;;
3733;SDS011;1882;52.256;8.874;2022-12-26T03:02:52;19.00;;;10.73;;
3733;SDS011;1882;52.256;8.874;2022-12-26T03:05:40;19.00;;;11.50;;
3733;SDS011;1882;52.256;8.874;2022-12-26T03:08:31;20.33;;;11.60;;
3733;SDS011;1882;52.256;8.874;2022-12-26T03:11:19;22.03;;;12.23;;
3733;SDS011;1882;52.256;8.874;2022-12-26T03:14:08;18.10;;;10.83;;
3733;SDS011;1882;52.256;8.874;2022-12-26T03:16:40;19.83;;;11.70;;
3733;SDS011;1882;52.256;8.874;2022-12-26T03:19:26;17.90;;;11.70;;
3733;SDS011;1882;52.256;8.874;2022-12-26T03:21:54;21.53;;;12.17;;
3733;SDS011;1882;52.256;8.874;2022-12-26T03:24:21;23.70;;;12.50;;
3733;SDS011;1882;52.256;8.874;2022-12-26T03:26:51;19.60;;;12.37;;
3733;SDS011;1882;52.256;8.874;2022-12-26T03:29:20;21.00;;;12.30;;
3733;SDS011;1882;52.256;8.874;2022-12-26T03:32:08;23.93;;;12.40;;
3733;SDS011;1882;52.256;8.874;2022-12-26T03:34:39;20.13;;;12.00;;
3733;SDS011;1882;52.256;8.874;2022-12-26T03:49:32;21.27;;;12.63;;
3733;SDS011;1882;52.256;8.874;2022-12-26T03:52:23;25.00;;;13.57;;
3733;SDS011;1882;52.256;8.874;2022-12-26T04:01:15;21.30;;;12.40;;
3733;SDS011;1882;52.256;8.874;2022-12-26T04:04:02;25.80;;;12.80;;
3733;SDS011;1882;52.256;8.874;2022-12-26T04:06:55;18.90;;;11.70;;
3733;SDS011;1882;52.256;8.874;2022-12-26T04:09:47;18.43;;;11.07;;
3733;SDS011;1882;52.256;8.874;2022-12-26T04:12:35;24.50;;;12.40;;
3733;SDS011;1882;52.256;8.874;2022-12-26T04:15:40;21.70;;;11.73;;
3733;SDS011;1882;52.256;8.874;2022-12-26T04:18:39;20.73;;;11.13;;
3733;SDS011;1882;52.256;8.874;2022-12-26T04:21:34;19.50;;;11.63;;
3733;SDS011;1882;52.256;8.874;2022-12-26T04:24:25;22.70;;;12.10;;
3733;SDS011;1882;52.256;8.874;2022-12-26T04:27:13;23.30;;;13.17;;
3733;SDS011;1882;52.256;8.874;2022-12-26T04:30:00;20.83;;;12.10;;
3733;SDS011;1882;52.256;8.874;2022-12-26T04:32:48;19.60;;;11.77;;
3733;SDS011;1882;52.256;8.874;2022-12-26T04:35:35;22.40;;;12.50;;
3733;SDS011;1882;52.256;8.874;2022-12-26T04:38:23;20.97;;;12.30;;
3733;SDS011;1882;52.256;8.874;2022-12-26T04:41:18;23.07;;;13.10;;
3733;SDS011;1882;52.256;8.874;2022-12-26T04:44:05;21.07;;;11.60;;
3733;SDS011;1882;52.256;8.874;2022-12-26T04:46:36;25.47;;;12.43;;
3733;SDS011;1882;52.256;8.874;2022-12-26T04:49:06;28.33;;;12.80;;
3733;SDS011;1882;52.256;8.874;2022-12-26T04:51:53;22.73;;;12.63;;
3733;SDS011;1882;52.256;8.874;2022-12-26T04:54:20;19.43;;;11.63;;
3733;SDS011;1882;52.256;8.874;2022-12-26T04:56:47;25.23;;;12.70;;
3733;SDS011;1882;52.256;8.874;2022-12-26T04:59:14;24.77;;;13.40;;
3733;SDS011;1882;52.256;8.874;2022-12-26T05:01:41;24.67;;;12.50;;
3733;SDS011;1882;52.256;8.874;2022-12-26T05:04:26;23.37;;;12.30;;
3733;SDS011;1882;52.256;8.874;2022-12-26T05:07:17;21.33;;;11.60;;
3733;SDS011;1882;52.256;8.874;2022-12-26T05:10:03;20.80;;;12.00;;
3733;SDS011;1882;52.256;8.874;2022-12-26T05:12:30;21.90;;;12.03;;
3733;SDS011;1882;52.256;8.874;2022-12-26T05:14:57;22.13;;;11.97;;
3733;SDS011;1882;52.256;8.874;2022-12-26T05:17:24;21.50;;;11.87;;
3733;SDS011;1882;52.256;8.874;2022-12-26T05:20:10;22.40;;;11.83;;
3733;SDS011;1882;52.256;8.874;2022-12-26T05:22:56;23.00;;;11.67;;
3733;SDS011;1882;52.256;8.874;2022-12-26T05:25:42;23.20;;;12.27;;
3733;SDS011;1882;52.256;8.874;2022-12-26T05:28:29;20.40;;;11.07;;
3733;SDS011;1882;52.256;8.874;2022-12-26T05:31:12;23.87;;;12.40;;
3733;SDS011;1882;52.256;8.874;2022-12-26T05:33:40;23.10;;;12.73;;
3733;SDS011;1882;52.256;8.874;2022-12-26T05:36:29;24.80;;;13.60;;
3733;SDS011;1882;52.256;8.874;2022-12-26T05:38:59;24.93;;;13.50;;
3733;SDS011;1882;52.256;8.874;2022-12-26T05:41:27;26.37;;;13.37;;
3733;SDS011;1882;52.256;8.874;2022-12-26T05:43:53;31.27;;;15.17;;
3733;SDS011;1882;52.256;8.874;2022-12-26T05:46:20;24.93;;;13.80;;
3733;SDS011;1882;52.256;8.874;2022-12-26T05:48:47;29.17;;;14.30;;
3733;SDS011;1882;52.256;8.874;2022-12-26T05:51:13;28.83;;;15.53;;
3733;SDS011;1882;52.256;8.874;2022-12-26T05:53:40;33.73;;;13.90;;
3733;SDS011;1882;52.256;8.874;2022-12-26T05:56:09;31.30;;;14.33;;
3733;SDS011;1882;52.256;8.874;2022-12-26T05:58:38;26.37;;;14.03;;
3733;SDS011;1882;52.256;8.874;2022-12-26T06:01:10;28.10;;;14.27;;
3733;SDS011;1882;52.256;8.874;2022-12-26T06:03:38;26.60;;;13.50;;
3733;SDS011;1882;52.256;8.874;2022-12-26T06:06:06;30.30;;;15.47;;
3733;SDS011;1882;52.256;8.874;2022-12-26T06:08:33;29.17;;;14.60;;
3733;SDS011;1882;52.256;8.874;2022-12-26T06:11:07;27.60;;;15.13;;
3733;SDS011;1882;52.256;8.874;2022-12-26T06:13:35;29.20;;;14.70;;
3733;SDS011;1882;52.256;8.874;2022-12-26T06:16:03;27.53;;;14.60;;
3733;SDS011;1882;52.256;8.874;2022-12-26T06:18:32;28.90;;;14.60;;
3733;SDS011;1882;52.256;8.874;2022-12-26T06:20:58;33.83;;;15.27;;
3733;SDS011;1882;52.256;8.874;2022-12-26T06:23:29;28.80;;;14.60;;
3733;SDS011;1882;52.256;8.874;2022-12-26T06:25:56;27.87;;;13.53;;
3733;SDS011;1882;52.256;8.874;2022-12-26T06:28:23;26.50;;;14.33;;
3733;SDS011;1882;52.256;8.874;2022-12-26T06:30:50;26.77;;;14.17;;
3733;SDS011;1882;52.256;8.874;2022-12-26T06:33:17;28.70;;;14.30;;
3733;SDS011;1882;52.256;8.874;2022-12-26T06:35:44;26.43;;;13.90;;
3733;SDS011;1882;52.256;8.874;2022-12-26T06:38:11;28.97;;;14.40;;
3733;SDS011;1882;52.256;8.874;2022-12-26T06:40:38;24.87;;;13.23;;
3733;SDS011;1882;52.256;8.874;2022-12-26T06:43:06;30.57;;;14.43;;
3733;SDS011;1882;52.256;8.874;2022-12-26T06:45:33;27.00;;;13.90;;
3733;SDS011;1882;52.256;8.874;2022-12-26T06:48:00;32.13;;;14.90;;
3733;SDS011;1882;52.256;8.874;2022-12-26T06:50:27;28.00;;;13.93;;
3733;SDS011;1882;52.256;8.874;2022-12-26T06:52:54;25.63;;;13.60;;
3733;SDS011;1882;52.256;8.874;2022-12-26T06:55:21;28.83;;;13.60;;
3733;SDS011;1882;52.256;8.874;2022-12-26T06:57:50;27.47;;;13.80;;
3733;SDS011;1882;52.256;8.874;2022-12-26T07:00:17;26.37;;;13.93;;
3733;SDS011;1882;52.256;8.874;2022-12-26T07:02:44;28.70;;;15.13;;
3733;SDS011;1882;52.256;8.874;2022-12-26T07:05:15;29.63;;;14.37;;
3733;SDS011;1882;52.256;8.874;2022-12-26T07:07:41;29.07;;;15.07;;
3733;SDS011;1882;52.256;8.874;2022-12-26T07:10:08;27.77;;;14.10;;
3733;SDS011;1882;52.256;8.874;2022-12-26T07:12:35;32.57;;;15.40;;
3733;SDS011;1882;52.256;8.874;2022-12-26T07:15:02;30.67;;;14.80;;
3733;SDS011;1882;52.256;8.874;2022-12-26T07:17:28;31.07;;;15.13;;
3733;SDS011;1882;52.256;8.874;2022-12-26T07:19:55;33.40;;;15.60;;
3733;SDS011;1882;52.256;8.874;2022-12-26T07:22:22;35.57;;;15.87;;
3733;SDS011;1882;52.256;8.874;2022-12-26T07:24:48;32.73;;;16.47;;
3733;SDS011;1882;52.256;8.874;2022-12-26T07:27:15;28.93;;;14.90;;
3733;SDS011;1882;52.256;8.874;2022-12-26T07:29:43;32.03;;;15.10;;
3733;SDS011;1882;52.256;8.874;2022-12-26T07:32:11;31.97;;;15.87;;
3733;SDS011;1882;52.256;8.874;2022-12-26T07:34:37;41.43;;;15.77;;
3733;SDS011;1882;52.256;8.874;2022-12-26T07:37:04;32.87;;;16.20;;
3733;SDS011;1882;52.256;8.874;2022-12-26T07:39:31;29.63;;;14.90;;
3733;SDS011;1882;52.256;8.874;2022-12-26T07:41:57;29.63;;;15.30;;
3733;SDS011;1882;52.256;8.874;2022-12-26T07:44:25;31.67;;;14.87;;
3733;SDS011;1882;52.256;8.874;2022-12-26T07:46:56;28.27;;;14.57;;
3733;SDS011;1882;52.256;8.874;2022-12-26T07:49:23;33.83;;;14.70;;
3733;SDS011;1882;52.256;8.874;2022-12-26T07:51:50;26.87;;;14.40;;
3733;SDS011;1882;52.256;8.874;2022-12-26T07:54:17;30.27;;;15.27;;
3733;SDS011;1882;52.256;8.874;2022-12-26T07:56:44;28.00;;;14.00;;
3733;SDS011;1882;52.256;8.874;2022-12-26T07:59:14;27.27;;;13.93;;
3733;SDS011;1882;52.256;8.874;2022-12-26T08:01:42;24.50;;;13.37;;
3733;SDS011;1882;52.256;8.874;2022-12-26T08:04:09;24.27;;;13.10;;
3733;SDS011;1882;52.256;8.874;2022-12-26T08:06:36;22.87;;;12.47;;
3733;SDS011;1882;52.256;8.874;2022-12-26T08:09:03;23.70;;;13.00;;
3733;SDS011;1882;52.256;8.874;2022-12-26T08:11:32;23.10;;;12.40;;
3733;SDS011;1882;52.256;8.874;2022-12-26T08:14:00;21.83;;;11.87;;
3733;SDS011;1882;52.256;8.874;2022-12-26T08:16:26;24.17;;;12.13;;
3733;SDS011;1882;52.256;8.874;2022-12-26T08:18:53;22.70;;;12.03;;
3733;SDS011;1882;52.256;8.874;2022-12-26T08:21:20;18.23;;;11.50;;
3733;SDS011;1882;52.256;8.874;2022-12-26T08:23:47;18.27;;;10.23;;
3733;SDS011;1882;52.256;8.874;2022-12-26T08:26:14;19.27;;;10.70;;
3733;SDS011;1882;52.256;8.874;2022-12-26T08:28:49;18.40;;;10.53;;
3733;SDS011;1882;52.256;8.874;2022-12-26T08:31:16;18.23;;;10.50;;
3733;SDS011;1882;52.256;8.874;2022-12-26T08:33:44;17.17;;;10.47;;
3733;SDS011;1882;52.256;8.874;2022-12-26T08:36:11;17.10;;;9.90;;
3733;SDS011;1882;52.256;8.874;2022-12-26T08:38:38;14.00;;;9.47;;
3733;SDS011;1882;52.256;8.874;2022-12-26T08:41:05;17.40;;;10.17;;
3733;SDS011;1882;52.256;8.874;2022-12-26T08:43:32;15.97;;;9.60;;
3733;SDS011;1882;52.256;8.874;2022-12-26T08:46:19;14.20;;;9.43;;
3733;SDS011;1882;52.256;8.874;2022-12-26T08:48:47;16.37;;;9.80;;
3733;SDS011;1882;52.256;8.874;2022-12-26T08:51:15;16.93;;;8.97;;
3733;SDS011;1882;52.256;8.874;2022-12-26T08:53:44;16.03;;;9.53;;
3733;SDS011;1882;52.256;8.874;2022-12-26T08:56:13;16.23;;;9.37;;
3733;SDS011;1882;52.256;8.874;2022-12-26T08:58:41;15.43;;;9.93;;
3733;SDS011;1882;52.256;8.874;2022-12-26T09:03:42;15.67;;;9.40;;
3733;SDS011;1882;52.256;8.874;2022-12-26T09:06:10;15.90;;;10.30;;
3733;SDS011;1882;52.256;8.874;2022-12-26T09:08:38;14.27;;;9.17;;
3733;SDS011;1882;52.256;8.874;2022-12-26T09:11:06;14.90;;;9.67;;
3733;SDS011;1882;52.256;8.874;2022-12-26T09:13:35;16.33;;;10.70;;
3733;SDS011;1882;52.256;8.874;2022-12-26T09:16:13;16.33;;;10.23;;
3733;SDS011;1882;52.256;8.874;2022-12-26T09:18:41;18.20;;;10.50;;
3733;SDS011;1882;52.256;8.874;2022-12-26T09:21:09;16.10;;;10.37;;
3733;SDS011;1882;52.256;8.874;2022-12-26T09:23:37;17.50;;;11.40;;
3733;SDS011;1882;52.256;8.874;2022-12-26T09:26:05;20.53;;;11.10;;
3733;SDS011;1882;52.256;8.874;2022-12-26T09:28:35;17.50;;;10.57;;
3733;SDS011;1882;52.256;8.874;2022-12-26T09:31:03;14.27;;;10.37;;
3733;SDS011;1882;52.256;8.874;2022-12-26T09:33:31;15.70;;;11.00;;
3733;SDS011;1882;52.256;8.874;2022-12-26T09:36:05;15.83;;;10.70;;
3733;SDS011;1882;52.256;8.874;2022-12-26T09:38:39;16.60;;;10.80;;
3733;SDS011;1882;52.256;8.874;2022-12-26T09:44:53;17.13;;;11.13;;
3733;SDS011;1882;52.256;8.874;2022-12-26T09:55:02;15.30;;;10.60;;
3733;SDS011;1882;52.256;8.874;2022-12-26T09:57:37;15.73;;;10.97;;
3733;SDS011;1882;52.256;8.874;2022-12-26T10:00:19;16.10;;;10.87;;
3733;SDS011;1882;52.256;8.874;2022-12-26T10:02:57;16.00;;;10.80;;
3733;SDS011;1882;52.256;8.874;2022-12-26T10:05:31;15.93;;;11.27;;
3733;SDS011;1882;52.256;8.874;2022-12-26T10:08:03;14.50;;;10.13;;
3733;SDS011;1882;52.256;8.874;2022-12-26T10:10:39;14.67;;;10.60;;
3733;SDS011;1882;52.256;8.874;2022-12-26T10:16:15;15.40;;;10.93;;
3733;SDS011;1882;52.256;8.874;2022-12-26T10:21:29;13.93;;;10.13;;
3733;SDS011;1882;52.256;8.874;2022-12-26T10:24:07;17.07;;;10.50;;
3733;SDS011;1882;52.256;8.874;2022-12-26T10:26:46;15.23;;;10.17;;
3733;SDS011;1882;52.256;8.874;2022-12-26T10:37:06;13.53;;;9.67;;
3733;SDS011;1882;52.256;8.874;2022-12-26T10:39:47;17.50;;;11.40;;
3733;SDS011;1882;52.256;8.874;2022-12-26T10:44:54;12.93;;;7.50;;
3733;SDS011;1882;52.256;8.874;2022-12-26T10:47:37;8.67;;;6.77;;
3733;SDS011;1882;52.256;8.874;2022-12-26T10:50:05;10.13;;;6.80;;
3733;SDS011;1882;52.256;8.874;2022-12-26T10:52:40;10.60;;;6.23;;
3733;SDS011;1882;52.256;8.874;2022-12-26T10:55:11;9.30;;;6.40;;
3733;SDS011;1882;52.256;8.874;2022-12-26T10:57:57;11.00;;;6.20;;
3733;SDS011;1882;52.256;8.874;2022-12-26T11:00:27;11.07;;;5.50;;
3733;SDS011;1882;52.256;8.874;2022-12-26T11:05:27;7.97;;;5.50;;
3733;SDS011;1882;52.256;8.874;2022-12-26T11:08:22;6.57;;;4.80;;
3733;SDS011;1882;52.256;8.874;2022-12-26T11:11:01;6.10;;;4.53;;
3733;SDS011;1882;52.256;8.874;2022-12-26T11:13:32;15.33;;;4.63;;
3733;SDS011;1882;52.256;8.874;2022-12-26T11:16:04;7.77;;;4.33;;
3733;SDS011;1882;52.256;8.874;2022-12-26T11:18:39;6.80;;;4.07;;
3733;SDS011;1882;52.256;8.874;2022-12-26T11:23:45;6.30;;;4.10;;
3733;SDS011;1882;52.256;8.874;2022-12-26T11:26:19;9.17;;;4.40;;
3733;SDS011;1882;52.256;8.874;2022-12-26T11:32:00;4.90;;;3.90;;
3733;SDS011;1882;52.256;8.874;2022-12-26T11:34:32;7.10;;;3.97;;
3733;SDS011;1882;52.256;8.874;2022-12-26T11:37:04;8.13;;;5.07;;
3733;SDS011;1882;52.256;8.874;2022-12-26T11:39:33;9.00;;;4.17;;
3733;SDS011;1882;52.256;8.874;2022-12-26T11:42:09;5.27;;;4.43;;
3733;SDS011;1882;52.256;8.874;2022-12-26T11:44:39;9.30;;;5.20;;
3733;SDS011;1882;52.256;8.874;2022-12-26T11:47:13;8.73;;;4.40;;
3733;SDS011;1882;52.256;8.874;2022-12-26T11:55:00;8.30;;;4.13;;
3733;SDS011;1882;52.256;8.874;2022-12-26T11:57:28;8.10;;;4.90;;
3733;SDS011;1882;52.256;8.874;2022-12-26T12:00:16;7.00;;;4.53;;
3733;SDS011;1882;52.256;8.874;2022-12-26T12:02:45;5.47;;;4.33;;
3733;SDS011;1882;52.256;8.874;2022-12-26T12:05:21;6.13;;;4.60;;
3733;SDS011;1882;52.256;8.874;2022-12-26T12:08:08;5.00;;;4.33;;
3733;SDS011;1882;52.256;8.874;2022-12-26T12:19:04;6.47;;;4.60;;
3733;SDS011;1882;52.256;8.874;2022-12-26T12:21:58;7.60;;;4.20;;
3733;SDS011;1882;52.256;8.874;2022-12-26T12:41:25;9.10;;;6.57;;
3733;SDS011;1882;52.256;8.874;2022-12-26T12:44:04;10.00;;;5.47;;
3733;SDS011;1882;52.256;8.874;2022-12-26T12:49:29;9.43;;;5.50;;
3733;SDS011;1882;52.256;8.874;2022-12-26T12:55:37;9.63;;;5.07;;
3733;SDS011;1882;52.256;8.874;2022-12-26T13:00:53;8.20;;;5.27;;
3733;SDS011;1882;52.256;8.874;2022-12-26T13:06:27;14.03;;;6.47;;
3733;SDS011;1882;52.256;8.874;2022-12-26T13:09:21;11.53;;;6.37;;
3733;SDS011;1882;52.256;8.874;2022-12-26T13:11:59;5.30;;;4.10;;
3733;SDS011;1882;52.256;8.874;2022-12-26T13:14:30;4.20;;;3.50;;
3733;SDS011;1882;52.256;8.874;2022-12-26T13:17:10;3.63;;;3.03;;
3733;SDS011;1882;52.256;8.874;2022-12-26T13:19:42;4.87;;;3.40;;
3733;SDS011;1882;52.256;8.874;2022-12-26T13:22:28;5.30;;;2.87;;
3733;SDS011;1882;52.256;8.874;2022-12-26T13:25:20;4.47;;;2.70;;
3733;SDS011;1882;52.256;8.874;2022-12-26T13:27:48;4.33;;;2.20;;
3733;SDS011;1882;52.256;8.874;2022-12-26T13:30:16;3.30;;;1.90;;
3733;SDS011;1882;52.256;8.874;2022-12-26T13:32:43;2.27;;;2.13;;
3733;SDS011;1882;52.256;8.874;2022-12-26T13:38:12;3.80;;;2.57;;
3733;SDS011;1882;52.256;8.874;2022-12-26T13:41:01;3.00;;;2.23;;
3733;SDS011;1882;52.256;8.874;2022-12-26T13:44:00;7.00;;;2.70;;
3733;SDS011;1882;52.256;8.874;2022-12-26T13:54:37;6.30;;;2.07;;
3733;SDS011;1882;52.256;8.874;2022-12-26T13:57:39;9.70;;;3.43;;
3733;SDS011;1882;52.256;8.874;2022-12-26T14:14:09;5.13;;;1.80;;
3733;SDS011;1882;52.256;8.874;2022-12-26T14:16:50;14.50;;;2.13;;
3733;SDS011;1882;52.256;8.874;2022-12-26T14:22:06;9.20;;;2.43;;
3733;SDS011;1882;52.256;8.874;2022-12-26T14:24:46;5.83;;;2.20;;
3733;SDS011;1882;52.256;8.874;2022-12-26T14:36:01;8.67;;;1.80;;
3733;SDS011;1882;52.256;8.874;2022-12-26T14:38:39;4.90;;;1.93;;
3733;SDS011;1882;52.256;8.874;2022-12-26T14:41:14;10.27;;;1.90;;
3733;SDS011;1882;52.256;8.874;2022-12-26T14:44:08;13.10;;;1.90;;
3733;SDS011;1882;52.256;8.874;2022-12-26T14:49:23;7.43;;;2.27;;
3733;SDS011;1882;52.256;8.874;2022-12-26T14:52:29;10.27;;;2.23;;
3733;SDS011;1882;52.256;8.874;2022-12-26T14:54:58;8.40;;;2.43;;
3733;SDS011;1882;52.256;8.874;2022-12-26T14:57:44;12.13;;;2.10;;
3733;SDS011;1882;52.256;8.874;2022-12-26T15:00:14;7.03;;;2.17;;
3733;SDS011;1882;52.256;8.874;2022-12-26T15:02:42;7.77;;;2.37;;
3733;SDS011;1882;52.256;8.874;2022-12-26T15:16:22;9.40;;;2.17;;
3733;SDS011;1882;52.256;8.874;2022-12-26T15:33:30;9.43;;;2.40;;
3733;SDS011;1882;52.256;8.874;2022-12-26T15:36:05;6.40;;;1.80;;
3733;SDS011;1882;52.256;8.874;2022-12-26T15:38:50;5.57;;;1.80;;
3733;SDS011;1882;52.256;8.874;2022-12-26T15:41:42;9.27;;;1.73;;
3733;SDS011;1882;52.256;8.874;2022-12-26T15:46:54;4.70;;;1.73;;
3733;SDS011;1882;52.256;8.874;2022-12-26T15:52:43;10.80;;;2.37;;
3733;SDS011;1882;52.256;8.874;2022-12-26T15:58:05;7.00;;;1.77;;
3733;SDS011;1882;52.256;8.874;2022-12-26T16:00:51;6.43;;;2.37;;
3733;SDS011;1882;52.256;8.874;2022-12-26T16:05:56;6.43;;;2.40;;
3733;SDS011;1882;52.256;8.874;2022-12-26T16:11:51;17.27;;;3.47;;
3733;SDS011;1882;52.256;8.874;2022-12-26T16:14:27;16.43;;;2.80;;
3733;SDS011;1882;52.256;8.874;2022-12-26T16:17:03;7.07;;;2.77;;
3733;SDS011;1882;52.256;8.874;2022-12-26T16:19:35;6.27;;;2.27;;
3733;SDS011;1882;52.256;8.874;2022-12-26T16:22:03;7.60;;;2.93;;
3733;SDS011;1882;52.256;8.874;2022-12-26T16:24:51;8.63;;;2.27;;
3733;SDS011;1882;52.256;8.874;2022-12-26T16:27:19;8.43;;;3.40;;
3733;SDS011;1882;52.256;8.874;2022-12-26T16:29:49;14.00;;;2.50;;
3733;SDS011;1882;52.256;8.874;2022-12-26T16:32:18;10.40;;;2.40;;
3733;SDS011;1882;52.256;8.874;2022-12-26T16:34:47;10.83;;;2.10;;
3733;SDS011;1882;52.256;8.874;2022-12-26T16:37:18;13.23;;;2.83;;
3733;SDS011;1882;52.256;8.874;2022-12-26T16:42:33;7.00;;;1.73;;
3733;SDS011;1882;52.256;8.874;2022-12-26T16:45:00;8.90;;;2.10;;
3733;SDS011;1882;52.256;8.874;2022-12-26T16:47:27;10.30;;;2.40;;
3733;SDS011;1882;52.256;8.874;2022-12-26T16:49:56;11.20;;;2.10;;
3733;SDS011;1882;52.256;8.874;2022-12-26T16:52:34;13.60;;;2.70;;
3733;SDS011;1882;52.256;8.874;2022-12-26T16:57:48;6.87;;;2.60;;
3733;SDS011;1882;52.256;8.874;2022-12-26T17:00:18;10.03;;;2.30;;
3733;SDS011;1882;52.256;8.874;2022-12-26T17:02:47;11.40;;;2.90;;
3733;SDS011;1882;52.256;8.874;2022-12-26T17:07:53;8.90;;;2.40;;
3733;SDS011;1882;52.256;8.874;2022-12-26T17:10:22;11.10;;;2.87;;
3733;SDS011;1882;52.256;8.874;2022-12-26T17:12:51;8.93;;;2.50;;
3733;SDS011;1882;52.256;8.874;2022-12-26T17:15:19;21.33;;;3.53;;
3733;SDS011;1882;52.256;8.874;2022-12-26T17:17:48;16.93;;;2.93;;
3733;SDS011;1882;52.256;8.874;2022-12-26T17:20:38;9.50;;;2.40;;
3733;SDS011;1882;52.256;8.874;2022-12-26T17:23:26;15.10;;;3.10;;
3733;SDS011;1882;52.256;8.874;2022-12-26T17:26:13;16.93;;;2.23;;
3733;SDS011;1882;52.256;8.874;2022-12-26T17:28:42;9.47;;;2.10;;
3733;SDS011;1882;52.256;8.874;2022-12-26T17:31:15;9.93;;;2.20;;
3733;SDS011;1882;52.256;8.874;2022-12-26T17:33:44;10.97;;;2.70;;
3733;SDS011;1882;52.256;8.874;2022-12-26T17:36:14;12.27;;;4.07;;
3733;SDS011;1882;52.256;8.874;2022-12-26T17:39:11;14.00;;;4.63;;
3733;SDS011;1882;52.256;8.874;2022-12-26T17:41:47;12.67;;;3.50;;
3733;SDS011;1882;52.256;8.874;2022-12-26T17:46:59;11.33;;;2.83;;
3733;SDS011;1882;52.256;8.874;2022-12-26T17:49:28;11.90;;;3.00;;
3733;SDS011;1882;52.256;8.874;2022-12-26T17:51:54;18.97;;;5.07;;
3733;SDS011;1882;52.256;8.874;2022-12-26T17:54:27;15.30;;;3.27;;
3733;SDS011;1882;52.256;8.874;2022-12-26T17:56:54;11.03;;;4.07;;
3733;SDS011;1882;52.256;8.874;2022-12-26T17:59:20;17.00;;;4.23;;
3733;SDS011;1882;52.256;8.874;2022-12-26T18:01:47;10.43;;;3.30;;
3733;SDS011;1882;52.256;8.874;2022-12-26T18:04:14;30.17;;;10.30;;
3733;SDS011;1882;52.256;8.874;2022-12-26T18:06:41;54.00;;;19.00;;
3733;SDS011;1882;52.256;8.874;2022-12-26T18:09:10;79.60;;;25.00;;
3733;SDS011;1882;52.256;8.874;2022-12-26T18:11:49;20.47;;;5.80;;
3733;SDS011;1882;52.256;8.874;2022-12-26T18:14:16;12.70;;;5.07;;
3733;SDS011;1882;52.256;8.874;2022-12-26T18:16:43;17.30;;;4.00;;
3733;SDS011;1882;52.256;8.874;2022-12-26T18:19:13;20.97;;;6.87;;
3733;SDS011;1882;52.256;8.874;2022-12-26T18:21:41;15.40;;;4.93;;
3733;SDS011;1882;52.256;8.874;2022-12-26T18:24:08;29.60;;;8.57;;
3733;SDS011;1882;52.256;8.874;2022-12-26T18:26:34;74.67;;;30.40;;
3733;SDS011;1882;52.256;8.874;2022-12-26T18:29:02;40.70;;;14.97;;
3733;SDS011;1882;52.256;8.874;2022-12-26T18:31:29;22.27;;;9.07;;
3733;SDS011;1882;52.256;8.874;2022-12-26T18:33:56;27.43;;;7.90;;
3733;SDS011;1882;52.256;8.874;2022-12-26T18:36:26;36.57;;;12.67;;
3733;SDS011;1882;52.256;8.874;2022-12-26T18:38:57;24.20;;;7.00;;
3733;SDS011;1882;52.256;8.874;2022-12-26T18:41:24;58.90;;;21.00;;
3733;SDS011;1882;52.256;8.874;2022-12-26T18:43:51;23.93;;;10.23;;
3733;SDS011;1882;52.256;8.874;2022-12-26T18:46:22;32.40;;;10.67;;
3733;SDS011;1882;52.256;8.874;2022-12-26T18:48:50;16.37;;;5.20;;
3733;SDS011;1882;52.256;8.874;2022-12-26T18:51:22;28.43;;;9.07;;
3733;SDS011;1882;52.256;8.874;2022-12-26T18:53:49;14.53;;;3.47;;
3733;SDS011;1882;52.256;8.874;2022-12-26T18:56:18;19.97;;;2.50;;
3733;SDS011;1882;52.256;8.874;2022-12-26T18:58:46;8.20;;;2.27;;
3733;SDS011;1882;52.256;8.874;2022-12-26T19:01:22;12.40;;;3.33;;
3733;SDS011;1882;52.256;8.874;2022-12-26T19:03:49;10.17;;;2.73;;
3733;SDS011;1882;52.256;8.874;2022-12-26T19:06:24;12.03;;;4.10;;
3733;SDS011;1882;52.256;8.874;2022-12-26T19:08:52;14.90;;;4.10;;
3733;SDS011;1882;52.256;8.874;2022-12-26T19:11:19;8.30;;;2.43;;